Time;durP1;ratioP1;P1;durP2;ratioP2;P2;SDS_P1;SDS_P2;PMS_P1;PMS_P2;Temp;Humidity;BMP_temperature;BMP_pressure;BME280_temperature;BME280_humidity;BME280_pressure;Samples;Min_cycle;Max_cycle;Signal;HPM_P1;HPM_P2
2021/12/03 00:00:06;;;;;;;11.77;2.83;;;;;;;10.33;87.90;102273.06;4845826;29;20459;-86
2021/12/03 00:02:34;;;;;;;7.20;2.10;;;;;;;10.26;87.44;102269.22;4830138;29;20908;-87
2021/12/03 00:16:50;;;;;;;28.13;10.43;;;;;;;10.15;88.92;102266.69;4841848;29;20739;-88
2021/12/03 00:19:20;;;;;;;6.43;2.83;;;;;;;10.21;88.75;102271.53;4796963;29;20465;-87
2021/12/03 00:21:48;;;;;;;6.50;2.40;;;;;;;10.24;87.99;102256.72;4811238;29;20449;-87
2021/12/03 00:24:16;;;;;;;8.07;2.67;;;;;;;10.21;87.60;102252.41;4781976;29;20536;-88
2021/12/03 00:27:21;;;;;;;9.50;3.10;;;;;;;10.27;87.29;102242.75;4796326;29;20449;-87
2021/12/03 00:29:50;;;;;;;9.67;2.70;;;;;;;10.15;87.05;102233.91;4811472;29;20437;-86
2021/12/03 00:32:18;;;;;;;12.90;2.13;;;;;;;10.16;87.16;102241.09;4811484;29;20449;-86
2021/12/03 00:34:46;;;;;;;13.07;2.30;;;;;;;10.15;86.96;102250.28;4796400;29;20445;-86
2021/12/03 00:37:15;;;;;;;8.13;1.87;;;;;;;10.12;86.72;102250.59;4738777;30;20937;-87
2021/12/03 00:39:43;;;;;;;9.87;2.30;;;;;;;10.06;87.60;102243.00;4738959;30;20552;-86
2021/12/03 00:42:15;;;;;;;5.90;1.90;;;;;;;10.00;87.63;102235.44;4724059;30;20506;-86
2021/12/03 00:44:49;;;;;;;12.33;2.17;;;;;;;9.99;87.90;102248.25;4725136;30;20543;-85
2021/12/03 00:47:17;;;;;;;6.47;2.20;;;;;;;9.95;87.95;102238.63;4725400;30;20825;-85
2021/12/03 00:49:46;;;;;;;8.07;2.00;;;;;;;9.91;87.63;102241.81;4724376;30;20441;-86
2021/12/03 00:52:14;;;;;;;15.07;2.97;;;;;;;9.84;88.61;102229.78;4738405;30;20528;-85
2021/12/03 00:54:43;;;;;;;12.37;2.30;;;;;;;9.86;88.54;102234.06;4740153;29;20436;-85
2021/12/03 00:57:11;;;;;;;7.23;3.00;;;;;;;9.80;88.90;102233.84;4779846;29;20872;-85
2021/12/03 00:59:39;;;;;;;8.07;2.50;;;;;;;9.77;89.13;102235.00;4809747;29;20432;-86
2021/12/03 01:02:07;;;;;;;7.30;1.83;;;;;;;9.67;89.29;102218.66;4795331;29;20481;-86
2021/12/03 01:04:35;;;;;;;5.30;1.87;;;;;;;9.65;89.19;102220.69;4781162;29;20441;-86
2021/12/03 01:07:03;;;;;;;5.23;1.53;;;;;;;9.61;89.09;102218.44;4810559;29;20445;-86
2021/12/03 01:09:31;;;;;;;9.10;2.10;;;;;;;9.62;89.69;102231.88;4810720;29;20432;-86
2021/12/03 01:11:59;;;;;;;8.53;2.27;;;;;;;9.57;89.78;102234.25;4780822;29;20485;-86
2021/12/03 01:14:27;;;;;;;8.10;2.00;;;;;;;9.59;90.16;102237.69;4780574;29;20456;-86
2021/12/03 01:16:58;;;;;;;16.83;3.50;;;;;;;9.64;89.97;102240.78;4781023;29;20944;-86
2021/12/03 01:19:28;;;;;;;9.30;4.20;;;;;;;9.64;91.10;102240.78;4843262;29;20488;-85
2021/12/03 01:21:56;;;;;;;11.80;3.30;;;;;;;9.69;90.56;102243.94;4813622;29;21004;-85
2021/12/03 01:24:26;;;;;;;9.83;2.50;;;;;;;9.72;90.34;102244.66;4828194;29;20456;-86
2021/12/03 01:26:55;;;;;;;8.93;2.73;;;;;;;9.66;90.01;102206.03;4828658;29;20451;-86
2021/12/03 01:29:23;;;;;;;11.70;2.20;;;;;;;9.74;89.03;102238.03;4813089;29;20448;-86
2021/12/03 01:31:53;;;;;;;7.47;1.90;;;;;;;9.72;88.98;102237.31;4813032;29;20488;-86
2021/12/03 01:34:21;;;;;;;8.50;2.57;;;;;;;9.68;89.67;102228.56;4813762;29;20449;-86
2021/12/03 01:36:49;;;;;;;7.50;2.57;;;;;;;9.68;89.52;102231.28;4798420;29;20443;-85
2021/12/03 01:39:17;;;;;;;13.53;3.00;;;;;;;9.69;89.24;102235.75;4813253;29;20448;-86
2021/12/03 01:41:44;;;;;;;7.83;2.67;;;;;;;9.65;89.93;102237.06;4827985;29;20529;-85
2021/12/03 01:44:13;;;;;;;5.87;2.20;;;;;;;9.62;89.89;102231.06;4798030;29;20459;-85
2021/12/03 01:46:43;;;;;;;10.00;2.30;;;;;;;9.58;91.08;102229.63;4827710;29;20451;-85
2021/12/03 01:49:11;;;;;;;9.43;2.20;;;;;;;9.51;90.82;102225.78;4842781;29;20456;-86
2021/12/03 01:51:39;;;;;;;10.67;2.90;;;;;;;9.43;90.78;102233.88;4812733;29;20906;-86
2021/12/03 01:54:06;;;;;;;8.50;2.80;;;;;;;9.34;91.27;102224.72;4797888;29;20543;-86
2021/12/03 01:56:37;;;;;;;13.30;2.83;;;;;;;9.22;91.24;102224.03;4813058;29;20950;-86
2021/12/03 01:59:05;;;;;;;4.80;2.07;;;;;;;9.25;91.08;102228.31;4842939;29;20952;-86
2021/12/03 02:01:33;;;;;;;12.70;3.73;;;;;;;9.18;91.17;102224.47;4812740;29;20441;-86
2021/12/03 02:04:02;;;;;;;8.40;2.37;;;;;;;9.13;91.47;102229.50;4842809;29;20456;-86
2021/12/03 02:06:30;;;;;;;6.33;2.13;;;;;;;9.09;91.99;102228.94;4812667;29;20464;-86
2021/12/03 02:08:58;;;;;;;4.07;2.17;;;;;;;9.12;91.99;102228.66;4827760;29;20433;-86
2021/12/03 02:11:27;;;;;;;10.90;2.50;;;;;;;9.00;92.78;102218.94;4812100;29;20484;-86
2021/12/03 02:13:57;;;;;;;7.77;1.60;;;;;;;9.06;92.24;102228.38;4827700;29;20440;-86
2021/12/03 02:16:25;;;;;;;6.77;2.47;;;;;;;9.09;92.85;102241.72;4828070;29;20431;-86
2021/12/03 02:18:53;;;;;;;6.13;2.20;;;;;;;9.03;92.98;102229.56;4797601;29;20472;-86
2021/12/03 02:21:21;;;;;;;7.43;1.90;;;;;;;9.05;92.09;102232.97;4812519;29;21012;-86
2021/12/03 02:23:49;;;;;;;7.03;2.30;;;;;;;8.96;92.35;102226.53;4812381;29;20946;-86
2021/12/03 02:26:17;;;;;;;15.20;2.50;;;;;;;8.89;92.33;102222.69;4812189;29;20452;-85
2021/12/03 02:28:46;;;;;;;7.60;2.30;;;;;;;8.95;92.83;102246.63;4827384;29;20496;-84
2021/12/03 02:31:15;;;;;;;7.83;2.20;;;;;;;8.88;92.51;102245.50;4827310;29;20492;-85
2021/12/03 02:33:55;;;;;;;8.70;2.00;;;;;;;8.85;93.43;102242.22;4827177;29;20539;-86
2021/12/03 02:36:24;;;;;;;7.83;2.07;;;;;;;8.87;93.36;102257.41;4812010;29;20436;-85
2021/12/03 02:38:53;;;;;;;13.13;2.50;;;;;;;8.92;93.79;102268.75;4842909;29;20452;-85
2021/12/03 02:41:21;;;;;;;9.30;2.93;;;;;;;8.86;93.74;102255.69;4827187;29;20448;-85
2021/12/03 02:43:49;;;;;;;7.93;2.20;;;;;;;8.81;93.26;102254.41;4812184;29;20497;-86
2021/12/03 02:46:16;;;;;;;5.70;2.30;;;;;;;8.82;92.93;102254.28;4811979;29;20541;-85
2021/12/03 02:48:44;;;;;;;11.00;2.10;;;;;;;8.77;92.75;102269.34;4812332;29;20432;-85
2021/12/03 02:51:19;;;;;;;9.33;2.53;;;;;;;8.71;92.83;102273.50;4811815;29;20491;-86
2021/12/03 02:53:46;;;;;;;4.80;2.17;;;;;;;8.72;93.29;102268.91;4843134;29;20451;-84
2021/12/03 02:56:14;;;;;;;6.30;2.13;;;;;;;8.69;93.57;102272.78;4826737;29;20451;-85
2021/12/03 02:58:41;;;;;;;8.70;2.77;;;;;;;8.69;92.74;102275.50;4810343;29;20475;-85
2021/12/03 03:01:09;;;;;;;6.80;2.67;;;;;;;8.65;92.49;102271.38;4827032;29;20455;-85
2021/12/03 03:03:37;;;;;;;7.97;2.00;;;;;;;8.66;92.69;102276.63;4796845;29;20452;-85
2021/12/03 03:06:08;;;;;;;6.00;1.83;;;;;;;8.62;92.33;102279.81;4811936;29;20432;-85
2021/12/03 03:08:36;;;;;;;10.53;2.20;;;;;;;8.60;93.38;102279.97;4811794;29;20839;-85
2021/12/03 03:11:06;;;;;;;9.33;2.27;;;;;;;8.62;93.45;102267.06;4812105;29;20530;-85
2021/12/03 03:13:35;;;;;;;11.30;2.20;;;;;;;8.65;92.89;102269.50;4812347;29;20588;-85
2021/12/03 03:16:04;;;;;;;6.20;2.00;;;;;;;8.61;92.74;102261.75;4797087;29;21035;-84
2021/12/03 03:18:31;;;;;;;10.33;2.33;;;;;;;8.61;93.26;102268.06;4826056;29;20488;-85
2021/12/03 03:21:00;;;;;;;14.13;2.60;;;;;;;8.73;94.00;102282.38;4811667;29;20433;-85
2021/12/03 03:23:28;;;;;;;4.97;2.20;;;;;;;8.70;93.49;102266.31;4811101;29;20451;-85
2021/12/03 03:25:56;;;;;;;8.20;2.00;;;;;;;8.71;93.03;102268.03;4796783;29;20444;-85
2021/12/03 03:28:24;;;;;;;9.70;2.67;;;;;;;8.77;93.27;102286.56;4811451;29;20455;-84
2021/12/03 03:30:55;;;;;;;8.43;2.20;;;;;;;8.85;92.74;102291.28;4796946;29;20425;-86
2021/12/03 03:33:23;;;;;;;8.10;2.20;;;;;;;8.76;92.71;102265.75;4811176;29;20458;-84
2021/12/03 03:35:51;;;;;;;6.80;2.43;;;;;;;8.93;92.88;102283.22;4826871;29;20472;-84
2021/12/03 03:38:19;;;;;;;10.10;2.00;;;;;;;8.92;92.34;102285.09;4796992;29;20773;-85
2021/12/03 03:40:47;;;;;;;7.10;2.10;;;;;;;8.91;92.42;102280.66;4796773;29;20453;-84
2021/12/03 03:43:15;;;;;;;7.63;2.60;;;;;;;8.94;92.51;102294.00;4796271;29;20453;-84
2021/12/03 03:45:43;;;;;;;12.03;3.30;;;;;;;8.92;92.73;102286.97;4826497;29;20451;-85
2021/12/03 03:48:11;;;;;;;9.53;2.37;;;;;;;8.95;92.62;102292.13;4811395;29;20459;-85
2021/12/03 03:50:38;;;;;;;13.23;2.83;;;;;;;8.90;92.87;102289.84;4796184;29;20456;-85
2021/12/03 03:53:06;;;;;;;9.37;2.47;;;;;;;8.84;92.56;102284.97;4796631;29;20864;-84
2021/12/03 03:55:34;;;;;;;8.63;2.10;;;;;;;8.86;92.14;102288.41;4796263;29;20559;-84
2021/12/03 03:58:04;;;;;;;7.87;1.93;;;;;;;8.79;92.73;102278.22;4796559;29;20523;-85
2021/12/03 04:00:39;;;;;;;7.93;2.80;;;;;;;8.74;92.50;102275.94;4826791;29;20436;-85
2021/12/03 04:03:07;;;;;;;6.77;2.03;;;;;;;8.69;92.99;102269.19;4811626;29;20935;-86
2021/12/03 04:05:35;;;;;;;9.63;2.37;;;;;;;8.71;93.60;102268.03;4796756;29;20429;-85
2021/12/03 04:08:03;;;;;;;15.00;2.30;;;;;;;8.72;93.48;102271.63;4826049;29;20444;-84
2021/12/03 04:10:31;;;;;;;8.00;2.70;;;;;;;8.73;93.08;102276.94;4842650;29;20424;-86
2021/12/03 04:12:59;;;;;;;5.70;2.40;;;;;;;8.66;92.74;102264.88;4811255;29;20484;-85
2021/12/03 04:15:27;;;;;;;8.23;3.73;;;;;;;8.66;92.96;102276.63;4811246;29;20447;-84
2021/12/03 04:17:54;;;;;;;7.20;2.70;;;;;;;8.66;93.05;102270.31;4811207;29;20577;-85
2021/12/03 04:20:23;;;;;;;7.40;2.47;;;;;;;8.68;93.32;102268.31;4826363;29;20492;-85
2021/12/03 04:22:52;;;;;;;8.60;2.60;;;;;;;8.65;93.15;102268.63;4826375;29;20439;-85
2021/12/03 04:25:20;;;;;;;8.30;2.37;;;;;;;8.56;93.91;102255.84;4811388;29;20436;-84
2021/12/03 04:27:49;;;;;;;7.53;2.40;;;;;;;8.67;93.39;102272.06;4842053;29;20458;-85
2021/12/03 04:30:47;;;;;;;4.40;2.13;;;;;;;8.72;93.69;102268.91;4796254;29;20455;-85
2021/12/03 04:33:15;;;;;;;7.67;2.40;;;;;;;8.72;93.38;102269.75;4840239;29;20484;-85
2021/12/03 04:35:43;;;;;;;8.63;2.17;;;;;;;8.72;93.15;102269.75;4799413;29;20936;-86
2021/12/03 04:38:11;;;;;;;12.77;2.77;;;;;;;8.71;93.40;102272.63;4829098;29;20555;-84
2021/12/03 04:40:39;;;;;;;9.83;2.80;;;;;;;8.65;93.81;102263.19;4814473;29;20487;-85
2021/12/03 04:43:07;;;;;;;12.80;2.70;;;;;;;8.75;93.56;102285.84;4814618;29;20433;-85
2021/12/03 04:45:35;;;;;;;8.77;2.10;;;;;;;8.78;93.23;102285.56;4828987;29;20459;-84
2021/12/03 04:48:03;;;;;;;10.90;2.10;;;;;;;8.75;93.26;102280.38;4799383;29;20444;-84
2021/12/03 04:50:34;;;;;;;7.43;3.10;;;;;;;8.77;93.82;102278.38;4799411;29;20452;-84
2021/12/03 04:53:02;;;;;;;7.43;2.27;;;;;;;8.79;93.43;102289.13;4814468;29;20472;-84
2021/12/03 04:55:30;;;;;;;11.00;2.63;;;;;;;8.84;93.98;102286.84;4814546;29;20428;-85
2021/12/03 04:57:58;;;;;;;13.67;3.33;;;;;;;8.77;93.97;102274.78;4845431;29;20519;-84
2021/12/03 05:00:41;;;;;;;11.73;2.60;;;;;;;8.77;93.62;102283.81;4798217;29;20452;-85
2021/12/03 05:03:11;;;;;;;13.33;3.30;;;;;;;8.74;93.86;102283.25;4828895;29;20444;-85
2021/12/03 05:05:43;;;;;;;10.23;3.37;;;;;;;8.72;93.81;102283.38;4813994;29;20463;-84
2021/12/03 05:08:15;;;;;;;6.60;2.23;;;;;;;8.73;93.71;102287.84;4815229;29;20478;-85
2021/12/03 05:10:44;;;;;;;9.33;2.50;;;;;;;8.75;94.08;102287.69;4844318;29;20809;-85
2021/12/03 05:13:30;;;;;;;11.70;2.33;;;;;;;8.65;93.98;102287.72;4843956;29;20480;-85
2021/12/03 05:15:58;;;;;;;7.03;2.27;;;;;;;8.62;94.29;102290.72;4844855;29;20444;-85
2021/12/03 05:18:28;;;;;;;11.50;2.80;;;;;;;8.50;93.54;102292.69;4813779;29;20540;-85
2021/12/03 05:20:59;;;;;;;9.67;2.77;;;;;;;8.36;92.99;102295.00;4814170;29;20443;-85
2021/12/03 05:23:28;;;;;;;8.00;2.57;;;;;;;8.24;93.02;102303.28;4829041;29;20956;-84
2021/12/03 05:25:56;;;;;;;8.20;3.10;;;;;;;8.09;93.97;102298.34;4813678;29;20531;-86
2021/12/03 05:28:24;;;;;;;12.23;2.60;;;;;;;7.90;94.15;102288.25;4843507;29;20445;-85
2021/12/03 05:30:53;;;;;;;12.30;2.70;;;;;;;7.85;93.78;102307.75;4813921;29;20455;-84
2021/12/03 05:33:22;;;;;;;5.53;2.43;;;;;;;7.76;94.80;102299.53;4798660;29;20556;-85
2021/12/03 05:35:50;;;;;;;4.30;2.17;;;;;;;7.65;94.89;102294.19;4798881;29;20455;-84
2021/12/03 05:38:18;;;;;;;12.40;3.43;;;;;;;7.69;94.97;102311.97;4799083;29;20429;-85
2021/12/03 05:40:47;;;;;;;12.40;3.07;;;;;;;7.66;95.21;102321.28;4799196;29;20909;-85
2021/12/03 05:43:16;;;;;;;7.30;3.00;;;;;;;7.57;96.00;102306.59;4813653;29;21091;-85
2021/12/03 05:45:45;;;;;;;9.03;2.73;;;;;;;7.61;95.69;102310.78;4812707;29;20512;-85
2021/12/03 05:48:13;;;;;;;5.57;2.63;;;;;;;7.56;95.82;102315.75;4843234;29;20456;-86
2021/12/03 05:51:10;;;;;;;7.13;2.80;;;;;;;7.56;96.66;102318.50;4813554;29;20428;-85
2021/12/03 05:53:39;;;;;;;10.07;2.73;;;;;;;7.53;96.25;102324.19;4828298;29;20487;-84
2021/12/03 05:56:10;;;;;;;5.13;2.33;;;;;;;7.60;96.64;102328.09;4813093;29;20459;-85
2021/12/03 05:58:37;;;;;;;9.63;2.63;;;;;;;7.65;97.03;102322.25;4843775;29;20470;-85
2021/12/03 06:01:05;;;;;;;9.70;2.37;;;;;;;7.71;96.92;102315.41;4813552;29;20489;-85
2021/12/03 06:03:32;;;;;;;13.47;3.10;;;;;;;7.79;97.03;102323.75;4800091;29;20443;-85
2021/12/03 06:06:00;;;;;;;17.13;4.17;;;;;;;7.86;96.63;102323.06;4797923;29;20452;-85
2021/12/03 06:08:27;;;;;;;10.67;2.30;;;;;;;7.94;96.96;102316.94;4843892;29;20531;-84
2021/12/03 06:10:56;;;;;;;6.40;2.33;;;;;;;7.97;96.54;102308.47;4813087;29;20975;-85
2021/12/03 06:13:28;;;;;;;7.17;2.70;;;;;;;7.94;95.77;102316.94;4844132;29;20570;-85
2021/12/03 06:15:58;;;;;;;6.20;2.27;;;;;;;8.02;95.84;102316.25;4842821;29;20493;-84
2021/12/03 06:18:25;;;;;;;9.23;2.60;;;;;;;8.13;95.64;102327.88;4827436;29;20903;-84
2021/12/03 06:20:53;;;;;;;11.00;2.87;;;;;;;8.13;95.43;102322.44;4827973;29;20453;-85
2021/12/03 06:23:21;;;;;;;7.90;2.37;;;;;;;8.21;95.37;102329.91;4827348;29;20944;-85
2021/12/03 06:25:49;;;;;;;6.20;2.03;;;;;;;8.24;95.06;102316.88;4797536;29;20500;-85
2021/12/03 06:28:17;;;;;;;8.93;2.60;;;;;;;8.22;94.96;102332.50;4842617;29;20531;-84
2021/12/03 06:30:46;;;;;;;8.27;2.17;;;;;;;8.13;94.76;102333.31;4797516;29;20483;-85
2021/12/03 06:33:14;;;;;;;11.83;2.40;;;;;;;8.05;95.45;102327.72;4843084;29;20531;-85
2021/12/03 06:35:42;;;;;;;10.23;2.37;;;;;;;8.16;95.04;102335.78;4827311;29;20460;-84
2021/12/03 06:38:10;;;;;;;9.47;2.20;;;;;;;8.09;95.34;102340.03;4827654;29;20479;-85
2021/12/03 06:40:37;;;;;;;12.27;2.73;;;;;;;8.18;95.03;102358.28;4812244;29;20503;-86
2021/12/03 06:43:07;;;;;;;7.37;2.60;;;;;;;8.17;94.99;102353.84;4827529;29;20444;-85
2021/12/03 06:45:35;;;;;;;9.53;3.13;;;;;;;8.23;95.17;102361.47;4826964;29;20896;-86
2021/12/03 06:48:03;;;;;;;8.73;3.10;;;;;;;8.12;93.80;102369.72;4812096;29;20452;-85
2021/12/03 06:50:32;;;;;;;7.80;2.13;;;;;;;7.95;93.07;102375.81;4797335;29;20897;-85
2021/12/03 06:55:38;;;;;;;5.73;2.23;;;;;;;7.62;94.13;102383.25;4827232;29;20452;-86
2021/12/03 06:58:06;;;;;;;8.60;3.10;;;;;;;7.49;94.20;102389.91;4798548;29;20448;-84
2021/12/03 07:00:35;;;;;;;9.23;2.33;;;;;;;7.44;94.92;102400.31;4809660;29;20464;-82
2021/12/03 07:03:04;;;;;;;4.93;2.63;;;;;;;7.35;95.34;102396.53;4819878;29;20483;-84
2021/12/03 07:05:34;;;;;;;6.90;2.30;;;;;;;7.26;95.11;102400.06;4818312;29;20484;-84
2021/12/03 07:08:03;;;;;;;7.47;2.63;;;;;;;7.22;94.84;102406.75;4830186;29;20535;-85
2021/12/03 07:10:31;;;;;;;7.63;2.60;;;;;;;7.21;95.53;102410.44;4844865;29;20447;-85
2021/12/03 07:12:59;;;;;;;9.80;3.00;;;;;;;7.18;95.55;102411.56;4817325;29;20516;-84
2021/12/03 07:15:27;;;;;;;11.10;2.80;;;;;;;7.07;95.74;102403.47;4825149;29;20440;-85
2021/12/03 07:17:55;;;;;;;7.20;2.53;;;;;;;7.03;96.26;102403.88;4811272;29;20482;-84
2021/12/03 07:20:23;;;;;;;7.93;2.17;;;;;;;7.07;95.71;102411.63;4841301;29;20981;-86
2021/12/03 07:22:51;;;;;;;8.37;2.40;;;;;;;7.03;96.52;102412.88;4808498;29;20537;-84
2021/12/03 07:25:18;;;;;;;8.33;2.20;;;;;;;7.11;96.70;102413.09;4823704;29;20955;-84
2021/12/03 07:27:46;;;;;;;9.13;2.50;;;;;;;7.16;96.54;102412.69;4806722;29;20465;-83
2021/12/03 07:30:18;;;;;;;6.43;2.23;;;;;;;7.11;95.81;102409.53;4824008;29;20480;-85
2021/12/03 07:32:45;;;;;;;10.77;3.43;;;;;;;7.05;96.10;102410.03;4814779;29;20987;-85
2021/12/03 07:35:13;;;;;;;7.83;2.40;;;;;;;7.05;96.63;102418.19;4796806;29;20464;-84
2021/12/03 07:37:44;;;;;;;8.20;2.53;;;;;;;7.03;97.13;102414.72;4799388;29;20457;-84
2021/12/03 07:40:12;;;;;;;7.27;2.50;;;;;;;7.08;97.89;102415.22;4811122;29;20444;-85
2021/12/03 07:42:40;;;;;;;5.77;2.03;;;;;;;7.19;98.62;102416.00;4801862;29;20443;-85
2021/12/03 07:45:13;;;;;;;13.57;2.73;;;;;;;7.33;98.64;102416.69;4807913;29;20437;-84
2021/12/03 07:47:40;;;;;;;9.50;2.53;;;;;;;7.45;98.34;102412.94;4821228;29;20541;-85
2021/12/03 07:50:14;;;;;;;16.60;4.60;;;;;;;7.57;98.14;102410.00;4823005;29;20486;-85
2021/12/03 07:52:42;;;;;;;180.53;66.93;;;;;;;7.66;98.01;102427.38;4822888;29;20610;-84
2021/12/03 07:55:15;;;;;;;126.17;39.57;;;;;;;7.65;96.71;102433.81;4808006;29;20951;-85
2021/12/03 07:57:47;;;;;;;43.10;16.00;;;;;;;7.59;96.32;102431.63;4813872;29;20456;-84
2021/12/03 08:00:48;;;;;;;;;;;;;;;;;;;;;
2021/12/03 08:03:53;;;;;;;14.40;4.80;;;;;;;7.52;96.58;102425.84;4804696;29;20432;-87
2021/12/03 08:10:18;;;;;;;13.43;4.43;;;;;;;7.79;98.28;102438.06;4826562;29;20523;-83
2021/12/03 08:16:39;;;;;;;18.10;8.27;;;;;;;7.81;97.82;102412.44;4834754;29;20462;-94
2021/12/03 08:19:08;;;;;;;25.27;11.90;;;;;;;7.93;97.68;102415.91;4788190;29;20509;-90
2021/12/03 08:21:50;;;;;;;25.20;6.63;;;;;;;8.06;98.37;102430.19;4811417;29;20439;-96
2021/12/03 08:24:30;;;;;;;16.83;5.60;;;;;;;8.01;98.15;102398.91;4817101;29;20459;-95
2021/12/03 08:27:13;;;;;;;21.60;4.93;;;;;;;8.03;98.02;102402.38;4820782;29;20547;-96
2021/12/03 11:28:19;;;;;;;8.57;1.93;;;;;;;14.25;61.16;102459.03;4826963;29;20452;-95
2021/12/03 19:03:34;;;;;;;5.47;2.20;;;;;;;11.96;nan;102405.78;4823531;29;20845;-90
2021/12/03 19:06:19;;;;;;;11.80;2.70;;;;;;;12.05;nan;102424.84;4803929;29;20474;-90
2021/12/03 19:09:15;;;;;;;7.70;2.10;;;;;;;12.04;nan;102417.66;4799011;29;20457;-93
2021/12/03 19:11:43;;;;;;;11.50;2.40;;;;;;;12.01;nan;102423.44;4799193;29;20468;-91
2021/12/03 19:14:11;;;;;;;9.60;2.37;;;;;;;12.01;nan;102426.19;4795443;29;20485;-91
2021/12/03 19:16:40;;;;;;;6.63;2.40;;;;;;;11.97;nan;102422.03;4794600;29;20460;-93
2021/12/03 19:19:11;;;;;;;9.83;3.87;;;;;;;12.00;nan;102431.84;4809568;29;20513;-93
2021/12/03 19:21:48;;;;;;;9.67;3.97;;;;;;;11.98;nan;102433.88;4809941;29;20457;-93
2021/12/03 19:24:16;;;;;;;9.73;2.67;;;;;;;11.85;nan;102425.22;4779748;29;20477;-93
2021/12/03 19:26:46;;;;;;;10.73;3.80;;;;;;;11.81;nan;102432.03;4794590;29;20829;-93
2021/12/03 19:29:16;;;;;;;15.87;7.10;;;;;;;11.80;nan;102444.03;4794591;29;20452;-89
2021/12/03 19:31:48;;;;;;;18.57;7.43;;;;;;;11.69;nan;102448.72;4809313;29;20461;-92
2021/12/03 19:34:23;;;;;;;11.07;5.30;;;;;;;11.61;nan;102443.16;4805852;29;20989;-92
2021/12/03 19:36:52;;;;;;;19.80;6.37;;;;;;;11.54;nan;102439.38;4805567;29;20457;-92
2021/12/03 19:39:23;;;;;;;15.20;7.17;;;;;;;11.45;nan;102448.50;4790641;29;20454;-91
2021/12/03 19:42:02;;;;;;;15.83;6.57;;;;;;;11.41;nan;102453.44;4790494;29;20470;-92
2021/12/03 19:44:40;;;;;;;18.30;7.10;;;;;;;11.36;nan;102449.44;4791016;29;20969;-92
2021/12/03 19:47:10;;;;;;;13.23;3.83;;;;;;;11.29;nan;102459.31;4792066;29;20946;-92
2021/12/03 19:52:43;;;;;;;9.30;2.50;;;;;;;11.10;nan;102448.53;4779469;29;20978;-93
2021/12/03 19:55:12;;;;;;;11.60;6.53;;;;;;;11.05;nan;102451.72;4741034;30;20458;-92
2021/12/03 19:57:40;;;;;;;11.17;3.77;;;;;;;10.97;nan;102452.47;4739906;30;20466;-92
2021/12/03 20:00:11;;;;;;;19.93;11.40;;;;;;;10.86;nan;102447.25;4801152;29;20466;-92
2021/12/03 20:02:40;;;;;;;27.50;15.40;;;;;;;10.85;nan;102456.47;4769703;30;20490;-91
2021/12/03 20:05:25;;;;;;;46.57;27.27;;;;;;;10.67;nan;102439.16;4787776;29;20451;-91
2021/12/03 20:07:56;;;;;;;52.70;32.00;;;;;;;10.60;nan;102446.22;4790656;30;20825;-93
2021/12/03 20:10:26;;;;;;;23.90;13.83;;;;;;;10.59;nan;102455.44;4804125;29;20520;-93
2021/12/03 20:13:04;;;;;;;14.13;7.90;;;;;;;10.59;nan;102455.44;4775679;30;20459;-92
2021/12/03 20:15:37;;;;;;;10.10;4.47;;;;;;;10.46;nan;102446.75;4747387;30;20552;-93
2021/12/03 20:20:52;;;;;;;7.73;4.10;;;;;;;10.41;nan;102443.59;4790151;29;20470;-93
2021/12/03 20:31:34;;;;;;;16.23;7.37;;;;;;;10.31;nan;102463.66;4797170;29;20472;-91
2021/12/03 20:34:46;;;;;;;8.30;4.50;;;;;;;10.29;nan;102465.66;4798034;29;20489;-92
2021/12/03 20:37:13;;;;;;;5.67;2.40;;;;;;;10.22;nan;102458.19;4803834;29;20472;-93
2021/12/03 20:39:43;;;;;;;24.80;10.10;;;;;;;10.23;nan;102460.78;4800881;29;20460;-92
2021/12/03 20:42:21;;;;;;;26.20;15.30;;;;;;;10.15;nan;102440.69;4782974;29;20957;-92
2021/12/03 20:50:33;;;;;;;14.50;7.90;;;;;;;10.33;nan;102463.50;4826917;29;20520;-92
2021/12/03 21:09:49;;;;;;;9.20;3.10;;;;;;;10.35;nan;102459.59;4814363;29;20445;-91
2021/12/03 21:12:25;;;;;;;8.43;4.07;;;;;;;10.36;nan;102461.34;4826342;29;20841;-91
2021/12/03 21:20:36;;;;;;;13.20;8.20;;;;;;;10.37;nan;102465.78;4813076;29;20472;-90
2021/12/03 21:23:08;;;;;;;18.83;8.40;;;;;;;10.30;nan;102461.94;4812659;29;20464;-92
2021/12/03 21:25:38;;;;;;;14.90;8.80;;;;;;;10.28;nan;102466.69;4796220;29;20457;-92
2021/12/03 21:31:20;;;;;;;9.23;4.90;;;;;;;10.22;nan;102472.72;4781993;29;20465;-91
2021/12/03 21:39:54;;;;;;;6.60;3.77;;;;;;;10.13;nan;102481.81;4782272;29;20466;-92
2021/12/03 21:42:13;;;;;;;5.53;3.27;;;;;;;10.08;nan;102484.09;4806257;29;20478;-91
2021/12/03 21:44:42;;;;;;;6.80;2.63;;;;;;;10.01;nan;102477.50;4762692;29;20854;-92
2021/12/03 21:47:11;;;;;;;14.27;2.70;;;;;;;10.00;nan;102475.81;4777546;29;20458;-92
2021/12/03 21:49:39;;;;;;;8.93;2.10;;;;;;;9.91;nan;102482.13;4776179;29;20545;-92
2021/12/03 21:52:07;;;;;;;7.63;2.27;;;;;;;9.89;nan;102479.56;4795403;29;20449;-91
2021/12/03 21:54:35;;;;;;;5.00;2.50;;;;;;;9.85;nan;102472.66;4781008;29;20488;-91
2021/12/03 21:57:05;;;;;;;5.90;3.27;;;;;;;9.86;nan;102479.84;4795644;29;20457;-91
2021/12/03 21:59:33;;;;;;;11.30;4.30;;;;;;;9.79;nan;102467.81;4810534;29;20526;-91
2021/12/03 22:02:01;;;;;;;8.20;5.33;;;;;;;9.84;nan;102486.44;4794901;29;20481;-91
2021/12/03 22:04:31;;;;;;;10.10;4.43;;;;;;;9.75;nan;102484.63;4810042;29;20505;-92
2021/12/03 22:07:05;;;;;;;7.63;2.90;;;;;;;9.67;nan;102474.41;4795506;29;20457;-92
2021/12/03 22:09:35;;;;;;;3.70;2.00;;;;;;;9.59;nan;102494.25;4797316;29;20453;-92
2021/12/03 22:12:08;;;;;;;4.43;1.93;;;;;;;9.54;nan;102495.69;4795752;29;20926;-92
2021/12/03 22:14:37;;;;;;;5.90;2.53;;;;;;;9.44;nan;102490.22;4795334;29;20496;-92
2021/12/03 22:17:40;;;;;;;4.57;2.00;;;;;;;9.38;nan;102490.81;4825304;29;20535;-91
2021/12/03 22:20:15;;;;;;;5.43;1.80;;;;;;;9.30;nan;102477.88;4810590;29;20468;-91
2021/12/03 22:22:52;;;;;;;6.33;2.00;;;;;;;9.27;nan;102474.56;4810087;29;20457;-90
2021/12/03 22:25:20;;;;;;;11.87;5.07;;;;;;;9.25;nan;102465.66;4809510;29;20943;-85
2021/12/03 22:27:48;;;;;;;8.73;4.40;;;;;;;9.24;nan;102472.13;4805753;29;20472;-84
2021/12/03 22:30:16;;;;;;;5.40;2.30;;;;;;;9.30;nan;102477.00;4824050;29;20469;-84
2021/12/03 22:32:43;;;;;;;5.80;2.37;;;;;;;9.25;nan;102468.38;4824322;29;20453;-85
2021/12/03 22:35:11;;;;;;;5.50;2.13;;;;;;;9.29;nan;102475.28;4817399;29;20492;-86
2021/12/03 22:37:39;;;;;;;5.90;3.00;;;;;;;9.22;nan;102458.66;4842702;29;20464;-86
2021/12/03 22:40:07;;;;;;;6.80;3.00;;;;;;;9.31;nan;102473.28;4825406;29;20461;-86
2021/12/03 22:42:35;;;;;;;5.43;2.17;;;;;;;9.17;nan;102455.47;4823396;29;20879;-86
2021/12/03 22:45:03;;;;;;;7.20;3.00;;;;;;;9.19;nan;102474.44;4808524;29;20457;-86
2021/12/03 22:47:36;;;;;;;6.37;3.10;;;;;;;9.16;nan;102485.63;4808642;29;20521;-85
2021/12/03 22:52:40;;;;;;;7.13;2.90;;;;;;;9.03;nan;102485.91;4791412;29;20454;-86
2021/12/03 22:55:09;;;;;;;8.90;4.33;;;;;;;8.95;nan;102478.41;4792469;29;20881;-86
2021/12/03 22:57:38;;;;;;;7.50;4.03;;;;;;;8.89;nan;102481.69;4823835;29;20462;-86
2021/12/03 23:00:08;;;;;;;8.17;2.97;;;;;;;8.89;nan;102486.28;4838583;29;20445;-86
2021/12/03 23:02:36;;;;;;;5.00;3.00;;;;;;;8.87;nan;102486.41;4822890;29;20493;-86
2021/12/03 23:05:03;;;;;;;8.93;2.83;;;;;;;8.81;nan;102480.69;4824304;29;20449;-86
2021/12/03 23:07:35;;;;;;;8.20;4.00;;;;;;;8.73;nan;102477.78;4834396;29;20469;-85
2021/12/03 23:10:03;;;;;;;17.43;5.87;;;;;;;8.78;nan;102498.19;4818716;29;20521;-86
2021/12/03 23:12:31;;;;;;;9.10;3.60;;;;;;;8.66;nan;102496.53;4824960;29;20460;-86
2021/12/03 23:14:58;;;;;;;4.70;2.17;;;;;;;8.50;nan;102483.44;4808655;29;20485;-86
2021/12/03 23:17:26;;;;;;;4.33;2.13;;;;;;;8.51;nan;102500.66;4808147;29;20461;-85
2021/12/03 23:19:56;;;;;;;4.60;2.10;;;;;;;8.52;nan;102503.25;4793382;29;20461;-85
2021/12/03 23:22:26;;;;;;;5.47;3.13;;;;;;;8.51;nan;102504.25;4823550;29;20472;-85
2021/12/03 23:24:58;;;;;;;4.63;2.67;;;;;;;8.53;nan;102521.31;4806723;29;20445;-85
2021/12/03 23:27:28;;;;;;;2.67;1.90;;;;;;;8.48;nan;102501.78;4806918;29;20872;-86
2021/12/03 23:29:56;;;;;;;7.63;2.20;;;;;;;8.48;nan;102503.66;4824710;29;20449;-85
2021/12/03 23:32:24;;;;;;;4.87;1.80;;;;;;;8.49;nan;102508.97;4809244;29;20457;-85
2021/12/03 23:34:52;;;;;;;5.60;2.07;;;;;;;8.53;nan;102510.41;4804238;29;20889;-85